WetterOnline ( http://www.wetteronline.de )

Wetter aktuell Fehmarn

Aktuelles Wetter: Westermarkelsdorf (9m)

6-stündlich | Neueste Meldungen
Ortszeit Temperatur Wetter
Fr, 20.04. 14:00 23.6° C wolkenlos
Fr, 20.04. 8:00 13.8° C wolkenlos
Fr, 20.04. 2:00 12.3° C leicht bewölkt
Do, 19.04. 20:00 15.0° C -
Do, 19.04. 14:00 20.1° C leicht bewölkt
Do, 19.04. 8:00 12.7° C fast wolkenlos
Do, 19.04. 2:00 9.3° C wolkenlos
Mi, 18.04. 20:00 10.8° C wolkenlos
Ortszeit Temperatur Wetter
Fr, 20.04. 16:30 18.0° C fast wolkenlos
Fr, 20.04. 16:20 18.0° C fast wolkenlos
Fr, 20.04. 16:10 18.9° C leicht bewölkt
Fr, 20.04. 16:00 22.9° C leicht bewölkt
Fr, 20.04. 15:50 22.9° C wolkig
Fr, 20.04. 15:40 24.7° C leicht bewölkt
Fr, 20.04. 15:30 24.8° C wolkenlos
Fr, 20.04. 15:00 24.5° C leicht bewölkt
Fr, 20.04. 14:30 23.7° C fast wolkenlos
Fr, 20.04. 14:00 23.6° C wolkenlos
Fr, 20.04. 13:30 22.4° C wolkenlos
Ortszeit Relative Feuchte Sichtweite
Fr, 20.04. 14:00 59% 18 km
Fr, 20.04. 8:00 87% 12 km
Fr, 20.04. 2:00 89% 12 km
Do, 19.04. 20:00 73% 18 km
Do, 19.04. 14:00 59% 26 km
Do, 19.04. 8:00 91% 6 km
Do, 19.04. 2:00 97% 6 km
Mi, 18.04. 20:00 85% 12 km
Ortszeit Relative Feuchte Sichtweite
Fr, 20.04. 16:30 62% 12 km
Fr, 20.04. 16:20 62% -
Fr, 20.04. 16:10 60% -
Fr, 20.04. 16:00 43% 16 km
Fr, 20.04. 15:50 43% -
Fr, 20.04. 15:40 50% -
Fr, 20.04. 15:30 50% 18 km
Fr, 20.04. 15:00 52% 12 km
Fr, 20.04. 14:30 55% 17 km
Fr, 20.04. 14:00 59% 18 km
Fr, 20.04. 13:30 61% 15 km
Ortszeit Niederschlagsmenge Niederschlagsart
Fr, 20.04. 14:00 0.0 l/m2 in 6 Std. -
Fr, 20.04. 8:00 0.0 l/m2 in 12 Std. -
Fr, 20.04. 2:00 0.0 l/m2 in 6 Std. -
Do, 19.04. 20:00 0.0 l/m2 in 12 Std. -
Do, 19.04. 14:00 0.0 l/m2 in 6 Std. -
Do, 19.04. 8:00 0.0 l/m2 in 12 Std. -
Do, 19.04. 2:00 0.0 l/m2 in 6 Std. -
Mi, 18.04. 20:00 0.0 l/m2 in 12 Std. -
Ortszeit Niederschlagsmenge Niederschlagsart
Fr, 20.04. 16:30 0.0 l/m2 in 1 Std. -
Fr, 20.04. 16:20 keine Meldung -
Fr, 20.04. 16:10 keine Meldung -
Fr, 20.04. 16:00 0.0 l/m2 in 1 Std. -
Fr, 20.04. 15:50 keine Meldung -
Fr, 20.04. 15:40 keine Meldung -
Fr, 20.04. 15:30 0.0 l/m2 in 1 Std. -
Fr, 20.04. 15:00 0.0 l/m2 in 1 Std. -
Fr, 20.04. 14:30 0.0 l/m2 in 1 Std. -
Fr, 20.04. 14:00 0.0 l/m2 in 1 Std. -
Fr, 20.04. 13:30 0.0 l/m2 in 1 Std. -
Ortszeit Stärke Spitze Richtung
km/h Bft. km/h Grad Sektor
Fr, 20.04. 14:00 14 3 36 170° S
Fr, 20.04. 8:00 24 4 31 160° S
Fr, 20.04. 2:00 11 2 22 140° SO
Do, 19.04. 20:00 14 3 22 120° SO
Do, 19.04. 14:00 13 3 22 130° SO
Do, 19.04. 8:00 7 2 11 170° S
Do, 19.04. 2:00 4 1 14 150° SO
Mi, 18.04. 20:00 13 3 24 330° NW
Ortszeit Stärke Spitze Richtung
km/h Bft. km/h Grad Sektor
Fr, 20.04. 16:30 22 4 28 270° W
Fr, 20.04. 16:20 22 4 - 270° W
Fr, 20.04. 16:10 24 4 - 260° W
Fr, 20.04. 16:00 14 3 25 230° SW
Fr, 20.04. 15:50 14 3 - 230° SW
Fr, 20.04. 15:40 13 3 - 190° S
Fr, 20.04. 15:30 14 3 22 190° S
Fr, 20.04. 15:00 14 3 25 180° S
Fr, 20.04. 14:30 17 3 24 180° S
Fr, 20.04. 14:00 14 3 25 170° S
Fr, 20.04. 13:30 18 3 25 170° S
Ortszeit Untergrenze Bedeckung Gattung
total tief tief mittel hoch
Fr, 20.04. 14:00 - 0/8 0/8 - - -
Fr, 20.04. 8:00 - 0/8 0/8 - - -
Fr, 20.04. 2:00 3300 m 2/8 1/8 - - -
Do, 19.04. 20:00 - - - - - -
Do, 19.04. 14:00 10500 m 8/8 0/8 - - -
Do, 19.04. 8:00 12000 m 1/8 0/8 - - -
Do, 19.04. 2:00 - 0/8 0/8 - - -
Mi, 18.04. 20:00 - 0/8 0/8 - - -
Ortszeit Bedeckungsgrad in Achtel und Wolkenuntergrenze
Fr, 20.04. 16:30 2(12000m)
Fr, 20.04. 16:20 2(12000m)
Fr, 20.04. 16:10 4(12000m)
Fr, 20.04. 16:00 1(2100m) 7(12000m)
Fr, 20.04. 15:50 1(2100m) 7(12000m)
Fr, 20.04. 15:40 1(2100m) 5(12000m)
Fr, 20.04. 15:30 1(2100m)
Fr, 20.04. 15:00 1(3600m)
Fr, 20.04. 14:30 1(3600m)
Fr, 20.04. 14:00 keine Wolken
Fr, 20.04. 13:30 keine Wolken
Ortszeit Luftdruck NN (hPa) Tendenz (hPa in 3 Std.)
Fr, 20.04. 14:00 1020 - 2,1
Fr, 20.04. 8:00 1024 - 1,5
Fr, 20.04. 2:00 1027 - 1,2
Do, 19.04. 20:00 1029 - 1,3
Do, 19.04. 14:00 1031 - 0,8
Do, 19.04. 8:00 1032 + 0,2
Do, 19.04. 2:00 1032 - 0,1
Mi, 18.04. 20:00 1032 + 0,3
Ortszeit Luftdruck NN (hPa) Tendenz (hPa in 3 Std.)
Fr, 20.04. 16:30 1019 - 1,8
Fr, 20.04. 16:20 1019 keine Meldung
Fr, 20.04. 16:10 1019 keine Meldung
Fr, 20.04. 16:00 1019 - 2,0
Fr, 20.04. 15:50 1019 keine Meldung
Fr, 20.04. 15:40 1019 keine Meldung
Fr, 20.04. 15:30 1019 - 2,1
Fr, 20.04. 15:00 1019 - 2,2
Fr, 20.04. 14:30 1020 - 2,0
Fr, 20.04. 14:00 1020 - 2,1
Fr, 20.04. 13:30 1020 - 2,0
Ortszeit Schneehöhe (cm)
Fr, 20.04. 14:00 0
Fr, 20.04. 8:00 0
Fr, 20.04. 2:00 0
Do, 19.04. 20:00 0
Do, 19.04. 14:00 0
Do, 19.04. 8:00 0
Do, 19.04. 2:00 0
Mi, 18.04. 20:00 0
Ortszeit Schneehöhe (cm)
Fr, 20.04. 16:30 0
Fr, 20.04. 16:20 0
Fr, 20.04. 16:10 0
Fr, 20.04. 16:00 0
Fr, 20.04. 15:50 0
Fr, 20.04. 15:40 0
Fr, 20.04. 15:30 0
Fr, 20.04. 15:00 0
Fr, 20.04. 14:30 0
Fr, 20.04. 14:00 0
Fr, 20.04. 13:30 0
Link zu dieser Seite / Seite empfehlen

Das Wetter in ...